METAR Data
IDs: Format: Raw Decoded Include TAF

Data at: 1146 UTC 15 Jul 2020

KDYB 151135Z AUTO 00000KT 9SM CLR 25/24 A3005 RMK AO2
KDYB 151115Z AUTO 00000KT 8SM CLR 24/23 A3005 RMK AO2
KDYB 151055Z AUTO 00000KT 6SM BR CLR 24/23 A3004 RMK AO2
KDYB 151035Z AUTO 00000KT 8SM CLR 23/23 A3004 RMK AO2
KDYB 151015Z AUTO 00000KT 9SM CLR 24/23 A3002 RMK AO2
KDYB 150955Z AUTO 00000KT 9SM CLR 24/23 A3002 RMK AO2
KDYB 150935Z AUTO 00000KT 9SM CLR 24/23 A3001 RMK AO2
KDYB 150915Z AUTO 00000KT 9SM CLR 24/23 A3000 RMK AO2
KDYB 150855Z AUTO 00000KT 9SM CLR 24/23 A3000 RMK AO2
KDYB 150835Z AUTO 00000KT 9SM CLR 24/23 A3000 RMK AO2
KDYB 150815Z AUTO 00000KT 4SM BR CLR 24/23 A3001 RMK AO2
KDYB 150755Z AUTO 00000KT 9SM CLR 24/24 A3000 RMK AO2
KDYB 150735Z AUTO 00000KT 5SM BR CLR 24/24 A3000 RMK AO2
KDYB 150715Z AUTO 00000KT 9SM CLR 25/24 A3000 RMK AO2
KDYB 150655Z AUTO 00000KT 9SM CLR 25/24 A3001 RMK AO2
KDYB 150635Z AUTO 00000KT 9SM CLR 25/24 A3001 RMK AO2
KDYB 150615Z AUTO 00000KT 10SM CLR 26/24 A3001 RMK AO2
KDYB 150555Z AUTO 00000KT 10SM CLR 25/24 A3002 RMK AO2
KDYB 150535Z AUTO 00000KT 10SM CLR 25/24 A3002 RMK AO2
KDYB 150515Z AUTO 00000KT 10SM CLR 24/23 A3002 RMK AO2
KDYB 150455Z AUTO 00000KT 10SM CLR 25/24 A3003 RMK AO2
KDYB 150435Z AUTO 00000KT 6SM BR CLR 25/24 A3003 RMK AO2
KDYB 150415Z AUTO 00000KT 10SM FEW070 25/24 A3003 RMK AO2
KDYB 150355Z AUTO 00000KT 10SM SCT070 25/24 A3003 RMK AO2
KDYB 150335Z AUTO 00000KT 10SM FEW070 25/24 A3003 RMK AO2
KDYB 150315Z AUTO 00000KT 10SM FEW070 25/24 A3003 RMK AO2
KDYB 150255Z AUTO 00000KT 10SM CLR 25/24 A3003 RMK AO2
KDYB 150235Z AUTO 00000KT 10SM CLR 26/24 A3003 RMK AO2
KDYB 150215Z AUTO 00000KT 10SM SCT120 26/24 A3002 RMK AO2
KDYB 150155Z AUTO 00000KT 10SM FEW070 BKN120 26/24 A3002 RMK AO2
KDYB 150135Z AUTO 00000KT 10SM FEW070 BKN120 26/24 A3001 RMK AO2
KDYB 150115Z AUTO 00000KT 10SM FEW075 BKN120 26/24 A3000 RMK AO2
KDYB 150055Z AUTO 00000KT 10SM FEW070 BKN120 26/24 A3000 RMK AO2
KDYB 150035Z AUTO 20003KT 10SM BKN110 26/24 A3000 RMK AO2
KDYB 150015Z AUTO 00000KT 6SM BR OVC120 26/24 A3000 RMK AO2
KDYB 142355Z AUTO VRB04KT 10SM VCTS FEW065 FEW080 OVC110 27/24 A3000 RMK AO2 LTG DSNT SE AND S
KDYB 142335Z AUTO VRB06KT 10SM SCT055 BKN065 OVC110 28/24 A2998 RMK AO2 LTG DSNT SE
KDYB 142315Z AUTO VRB05G10KT 9SM VCTS FEW028 BKN050 OVC055 28/24 A2999 RMK AO2 LTG DSNT SE AND SW
KDYB 142255Z AUTO 00000KT 5SM VCTS HZ BKN050 BKN065 BKN095 30/25 A2998 RMK AO2 LTG DSNT ALQDS
KDYB 142235Z AUTO 00000KT 10SM VCTS FEW036 BKN055 OVC095 31/25 A2997 RMK AO2 LTG DSNT ALQDS
KDYB 142215Z AUTO 11006KT 10SM SCT060 BKN070 OVC090 33/25 A2996 RMK AO2 LTG DSNT SE
KDYB 142155Z AUTO 05004KT 10SM BKN065 BKN080 BKN090 32/25 A2995 RMK AO2 LTG DSNT SE
KDYB 142135Z AUTO 05003KT 10SM FEW050 SCT060 SCT095 33/25 A2995 RMK AO2
KDYB 142115Z AUTO 00000KT 10SM SCT050 BKN110 34/24 A2995 RMK AO2
KDYB 142055Z AUTO 00000KT 10SM SCT110 34/24 A2994 RMK AO2
KDYB 142035Z AUTO 00000KT 10SM CLR 35/22 A2994 RMK AO2
KDYB 142015Z AUTO 00000KT 10SM FEW090 34/23 A2995 RMK AO2
KDYB 141955Z AUTO 00000KT 10SM SCT049 SCT055 BKN090 34/24 A2995 RMK AO2
KDYB 141935Z AUTO 00000KT 9SM SCT048 SCT095 35/23 A2996 RMK AO2
KDYB 141915Z AUTO 00000KT 9SM CLR 35/23 A2995 RMK AO2
KDYB 141855Z AUTO 00000KT 9SM CLR 35/23 A2996 RMK AO2
KDYB 141835Z AUTO 00000KT 10SM FEW049 34/23 A2996 RMK AO2
KDYB 141815Z AUTO 00000KT 10SM FEW044 SCT050 35/23 A2997 RMK AO2
KDYB 141755Z AUTO 00000KT 10SM SCT044 SCT050 34/24 A2997 RMK AO2
KDYB 141735Z AUTO 00000KT 9SM CLR 34/24 A2997 RMK AO2
KDYB 141715Z AUTO 00000KT 6SM HZ FEW100 34/24 A2997 RMK AO2
KDYB 141655Z AUTO 00000KT 10SM CLR 34/24 A2998 RMK AO2
KDYB 141635Z AUTO 00000KT 10SM CLR 33/23 A2999 RMK AO2
KDYB 141615Z AUTO 00000KT 10SM CLR 33/24 A2999 RMK AO2
KDYB 141555Z AUTO 00000KT 10SM CLR 32/24 A2999 RMK AO2
KDYB 141535Z AUTO 00000KT 10SM FEW100 32/24 A2999 RMK AO2
KDYB 141515Z AUTO 05003KT 10SM CLR 31/24 A2999 RMK AO2
KDYB 141455Z AUTO 05003KT 10SM CLR 31/24 A2999 RMK AO2
KDYB 141435Z AUTO 00000KT 10SM FEW050 FEW095 30/25 A2998 RMK AO2
KDYB 141415Z AUTO 00000KT 10SM SCT050 29/25 A2998 RMK AO2
KDYB 141355Z AUTO 00000KT 10SM FEW060 29/25 A2998 RMK AO2
KDYB 141335Z AUTO 00000KT 10SM FEW055 FEW065 28/24 A2998 RMK AO2
KDYB 141315Z AUTO 00000KT 10SM BKN050 BKN060 26/24 A2997 RMK AO2
KDYB 141255Z AUTO 00000KT 10SM OVC049 26/24 A2997 RMK AO2
KDYB 141235Z AUTO 00000KT 10SM SCT049 26/24 A2996 RMK AO2
KDYB 141215Z AUTO 00000KT 10SM CLR 25/23 A2995 RMK AO2
KDYB 141155Z AUTO 00000KT 10SM CLR 24/23 A2995 RMK AO2
KDYB 141135Z AUTO 00000KT 10SM CLR 24/23 A2994 RMK AO2
KDYB 141115Z AUTO 00000KT 10SM CLR 23/23 A2993 RMK AO2
KDYB 141055Z AUTO 00000KT 10SM CLR 23/22 A2993 RMK AO2
KDYB 141035Z AUTO 00000KT 10SM CLR 23/22 A2992 RMK AO2
KDYB 140955Z AUTO 00000KT 10SM BKN055 23/22 A2991 RMK AO2
KDYB 140935Z AUTO 00000KT 10SM SCT060 23/22 A2991 RMK AO2
KDYB 140915Z AUTO 00000KT 10SM FEW060 23/22 A2990 RMK AO2
KDYB 140855Z AUTO 00000KT 10SM SCT060 23/22 A2990 RMK AO2
KDYB 140835Z AUTO 00000KT 10SM SCT060 23/22 A2989 RMK AO2
KDYB 140815Z AUTO 00000KT 10SM FEW055 23/22 A2989 RMK AO2
KDYB 140755Z AUTO 00000KT 10SM FEW055 23/22 A2989 RMK AO2
KDYB 140715Z AUTO 00000KT 10SM CLR 23/22 A2989 RMK AO2
KDYB 140655Z AUTO 00000KT 10SM CLR 23/22 A2989 RMK AO2
KDYB 140635Z AUTO 00000KT 10SM CLR 23/23 A2989 RMK AO2
KDYB 140615Z AUTO 00000KT 10SM CLR 23/22 A2989 RMK AO2
KDYB 140555Z AUTO 00000KT 10SM FEW050 24/23 A2990 RMK AO2
KDYB 140535Z AUTO 00000KT 10SM CLR 24/23 A2990 RMK AO2
KDYB 140515Z AUTO 00000KT 10SM CLR 24/23 A2990 RMK AO2
KDYB 140455Z AUTO 00000KT 10SM CLR 24/23 A2990 RMK AO2
KDYB 140435Z AUTO 00000KT 10SM CLR 24/23 A2989 RMK AO2
KDYB 140415Z AUTO 00000KT 10SM FEW038 FEW046 24/23 A2990 RMK AO2
KDYB 140355Z AUTO 00000KT 10SM FEW039 BKN047 24/22 A2989 RMK AO2
KDYB 140335Z AUTO 00000KT 10SM FEW038 SCT047 BKN055 24/22 A2989 RMK AO2
KDYB 140315Z AUTO 00000KT 10SM FEW046 SCT050 BKN060 24/22 A2989 RMK AO2
KDYB 140255Z AUTO 00000KT 10SM SCT055 24/22 A2989 RMK AO2
KDYB 140235Z AUTO 00000KT 10SM SCT050 SCT060 BKN090 25/23 A2990 RMK AO2
KDYB 140215Z AUTO VRB04KT 10SM FEW005 BKN047 OVC090 25/23 A2990 RMK AO2
KDYB 140155Z AUTO VRB03KT 10SM BKN047 BKN055 OVC065 25/23 A2991 RMK AO2
KDYB 140135Z AUTO VRB04G13KT 10SM SCT043 BKN048 OVC065 26/22 A2990 RMK AO2
KDYB 140115Z AUTO 09007G17KT 040V120 10SM BKN048 BKN055 OVC075 28/22 A2990 RMK AO2 LTG DSNT E
KDYB 140055Z AUTO 00000KT 10SM BKN060 SCT070 BKN080 30/24 A2987 RMK AO2 LTG DSNT NE AND E
KDYB 140035Z AUTO 00000KT 10SM SCT055 BKN070 SCT080 30/24 A2986 RMK AO2 LTG DSNT NE AND E
KDYB 140015Z AUTO 00000KT 10SM BKN055 BKN070 31/24 A2985 RMK AO2 LTG DSNT NE AND E
KDYB 132355Z AUTO 00000KT 10SM BKN060 32/24 A2983 RMK AO2 LTG DSNT NE